Time;durP1;ratioP1;P1;durP2;ratioP2;P2;SDS_P1;SDS_P2;PMS_P1;PMS_P2;Temp;Humidity;BMP_temperature;BMP_pressure;BME280_temperature;BME280_humidity;BME280_pressure;Samples;Min_cycle;Max_cycle;Signal;HPM_P1;HPM_P2
2021/05/09 09:52:09;;;;;;;4.28;1.30;;;;;;;;;;5065684;28;20428;-46
2021/05/09 09:54:36;;;;;;;3.42;1.38;;;;;;;;;;5039278;28;20045;-43
2021/05/09 09:57:04;;;;;;;2.00;1.25;;;;;;;;;;5042512;28;20032;-44
2021/05/09 09:59:30;;;;;;;2.40;1.27;;;;;;;;;;5059142;28;20041;-44
2021/05/09 10:01:57;;;;;;;1.75;1.25;;;;;;;;;;5039521;28;20084;-44
2021/05/09 10:04:23;;;;;;;2.28;1.13;;;;;;;;;;5042592;28;20569;-44
2021/05/09 10:06:49;;;;;;;2.40;1.33;;;;;;;;;;5046341;28;20020;-43
2021/05/09 10:09:15;;;;;;;2.22;1.40;;;;;;;;;;5069064;28;20103;-43
2021/05/09 10:11:42;;;;;;;1.80;1.20;;;;;;;;;;5068237;28;20036;-44
2021/05/09 10:14:08;;;;;;;2.47;1.27;;;;;;;;;;5069312;28;20021;-44
2021/05/09 10:16:37;;;;;;;2.45;1.45;;;;;;;;;;5056738;28;20078;-46
2021/05/09 10:19:04;;;;;;;2.50;1.30;;;;;;;;;;5068616;28;20025;-45
2021/05/09 10:21:31;;;;;;;2.30;1.30;;;;;;;;;;5068971;28;20021;-48
2021/05/09 10:24:12;;;;;;;1.75;1.40;;;;;;;;;;5050230;28;20033;-47
2021/05/09 10:26:45;;;;;;;3.85;1.00;;;;;;;;;;5048771;28;20029;-45
2021/05/09 10:29:30;;;;;;;2.78;1.40;;;;;;;;;;5065644;28;20107;-45
2021/05/09 10:31:56;;;;;;;1.52;1.17;;;;;;;;;;5069703;28;20029;-47
2021/05/09 10:34:41;;;;;;;2.85;1.15;;;;;;;;;;5051827;28;20046;-45
2021/05/09 10:37:07;;;;;;;2.25;1.35;;;;;;;;;;5068324;28;20031;-45
2021/05/09 10:39:34;;;;;;;3.72;1.40;;;;;;;;;;5051830;28;20031;-45
2021/05/09 10:42:00;;;;;;;4.43;1.20;;;;;;;;;;5051788;28;20025;-45
2021/05/09 10:44:40;;;;;;;3.80;1.38;;;;;;;;;;5068224;28;20021;-45
2021/05/09 10:47:06;;;;;;;2.75;1.40;;;;;;;;;;5069387;28;20528;-45
2021/05/09 10:49:33;;;;;;;3.75;1.55;;;;;;;;;;5068062;28;20062;-46
2021/05/09 10:51:59;;;;;;;1.65;1.10;;;;;;;;;;5067802;28;20139;-45
2021/05/09 10:54:25;;;;;;;2.63;1.50;;;;;;;;;;5068114;28;20464;-45
2021/05/09 10:56:54;;;;;;;1.73;1.25;;;;;;;;;;5069097;28;20029;-45
2021/05/09 10:59:21;;;;;;;2.72;1.45;;;;;;;;;;5069204;28;20476;-45
2021/05/09 11:02:05;;;;;;;2.22;1.27;;;;;;;;;;5063888;28;20032;-44
2021/05/09 11:04:46;;;;;;;2.45;1.40;;;;;;;;;;5055902;28;20024;-45
2021/05/09 11:07:28;;;;;;;3.78;1.60;;;;;;;;;;5055866;28;20060;-44
2021/05/09 11:09:54;;;;;;;1.80;1.42;;;;;;;;;;5054735;28;20104;-45
2021/05/09 11:12:21;;;;;;;2.05;1.40;;;;;;;;;;5054656;28;20025;-44
2021/05/09 11:14:48;;;;;;;1.92;1.27;;;;;;;;;;5054453;28;20033;-45
2021/05/09 11:17:17;;;;;;;2.08;1.63;;;;;;;;;;5054556;28;20025;-45
2021/05/09 11:19:48;;;;;;;1.48;1.20;;;;;;;;;;5055853;28;20379;-45
2021/05/09 11:22:17;;;;;;;3.92;1.35;;;;;;;;;;5055511;28;20028;-45
2021/05/09 11:24:43;;;;;;;2.22;1.30;;;;;;;;;;5054386;28;20017;-45
2021/05/09 11:27:14;;;;;;;2.00;1.17;;;;;;;;;;5055575;28;20070;-45
2021/05/09 11:29:47;;;;;;;2.20;1.35;;;;;;;;;;5055646;28;20104;-45
2021/05/09 11:32:14;;;;;;;2.63;1.20;;;;;;;;;;5055466;28;20098;-44
2021/05/09 11:34:50;;;;;;;2.58;1.35;;;;;;;;;;5054095;28;20552;-45
2021/05/09 11:37:16;;;;;;;2.95;1.10;;;;;;;;;;5055416;28;20388;-45
2021/05/09 11:39:43;;;;;;;1.60;1.30;;;;;;;;;;5053981;28;20024;-44
2021/05/09 11:42:12;;;;;;;2.53;1.33;;;;;;;;;;5054092;28;20471;-44
2021/05/09 11:44:45;;;;;;;1.27;1.10;;;;;;;;;;5054927;28;20484;-46
2021/05/09 11:47:15;;;;;;;1.67;1.30;;;;;;;;;;5055078;28;20035;-45
2021/05/09 11:49:41;;;;;;;2.50;1.27;;;;;;;;;;5053766;28;20472;-45
2021/05/09 11:52:10;;;;;;;2.33;1.55;;;;;;;;;;5055287;28;20041;-45
2021/05/09 11:54:37;;;;;;;1.42;1.23;;;;;;;;;;5055088;28;20017;-45
2021/05/09 11:57:05;;;;;;;1.77;1.40;;;;;;;;;;5054992;28;20029;-45
2021/05/09 11:59:31;;;;;;;1.40;1.30;;;;;;;;;;5053654;28;20024;-45
2021/05/09 12:01:58;;;;;;;1.50;1.35;;;;;;;;;;5037204;28;20017;-45
2021/05/09 12:04:29;;;;;;;1.63;1.30;;;;;;;;;;5054857;28;20116;-44
2021/05/09 12:06:56;;;;;;;2.65;1.40;;;;;;;;;;5055061;28;20025;-44
2021/05/09 12:09:23;;;;;;;1.80;1.20;;;;;;;;;;5053794;28;20021;-44
2021/05/09 12:11:49;;;;;;;1.77;1.30;;;;;;;;;;5053588;28;20084;-45
2021/05/09 12:14:15;;;;;;;1.40;1.30;;;;;;;;;;5052365;28;20040;-44
2021/05/09 12:16:42;;;;;;;2.30;1.23;;;;;;;;;;5053341;28;20028;-45
2021/05/09 12:19:08;;;;;;;1.38;1.10;;;;;;;;;;5054511;28;20029;-45
2021/05/09 12:21:35;;;;;;;1.83;1.38;;;;;;;;;;5054557;28;20017;-45
2021/05/09 12:24:02;;;;;;;2.15;1.50;;;;;;;;;;5036644;28;20028;-44
2021/05/09 12:26:28;;;;;;;1.90;1.25;;;;;;;;;;5054331;28;20021;-44
2021/05/09 12:28:54;;;;;;;2.03;1.20;;;;;;;;;;5054562;28;20043;-45
2021/05/09 12:31:20;;;;;;;1.65;1.20;;;;;;;;;;5052783;28;20029;-45
2021/05/09 12:33:47;;;;;;;1.67;1.48;;;;;;;;;;5053244;28;20434;-45
2021/05/09 12:36:18;;;;;;;1.85;1.40;;;;;;;;;;5054110;28;20408;-45
2021/05/09 12:38:45;;;;;;;1.77;1.33;;;;;;;;;;5053260;28;20434;-46
2021/05/09 12:41:15;;;;;;;1.70;1.33;;;;;;;;;;5054371;28;20025;-45
2021/05/09 12:43:44;;;;;;;2.38;1.38;;;;;;;;;;5053963;28;20025;-45
2021/05/09 12:46:30;;;;;;;2.20;1.35;;;;;;;;;;5054250;28;20049;-45
2021/05/09 12:49:06;;;;;;;2.17;1.40;;;;;;;;;;5052616;28;20028;-45
2021/05/09 12:51:32;;;;;;;2.65;1.45;;;;;;;;;;5053583;28;20583;-45
2021/05/09 12:53:58;;;;;;;1.45;1.13;;;;;;;;;;5053881;28;20055;-44
2021/05/09 12:56:28;;;;;;;1.88;1.38;;;;;;;;;;5053886;28;20045;-45
2021/05/09 12:59:00;;;;;;;1.50;1.17;;;;;;;;;;5053754;28;20029;-45
2021/05/09 13:01:26;;;;;;;2.00;1.30;;;;;;;;;;5052440;28;20025;-44
2021/05/09 13:03:52;;;;;;;1.55;1.05;;;;;;;;;;5053948;28;20029;-47
2021/05/09 13:06:18;;;;;;;1.25;1.15;;;;;;;;;;5053796;28;20044;-45
2021/05/09 13:08:44;;;;;;;2.33;1.50;;;;;;;;;;5052710;28;20017;-46
2021/05/09 13:11:11;;;;;;;1.58;1.20;;;;;;;;;;5053826;28;20021;-45
2021/05/09 13:13:37;;;;;;;1.50;1.30;;;;;;;;;;5052280;28;20028;-45
2021/05/09 13:16:03;;;;;;;1.75;1.40;;;;;;;;;;5053460;28;20052;-46
2021/05/09 13:18:30;;;;;;;1.88;1.58;;;;;;;;;;5052520;28;20059;-45
2021/05/09 13:20:56;;;;;;;1.88;1.20;;;;;;;;;;5052534;28;20013;-44
2021/05/09 13:23:22;;;;;;;1.80;1.48;;;;;;;;;;5053433;28;20028;-44
2021/05/09 13:25:50;;;;;;;1.73;1.20;;;;;;;;;;5051976;28;20017;-45
2021/05/09 13:28:16;;;;;;;1.30;1.20;;;;;;;;;;5053429;28;20033;-45
2021/05/09 13:30:42;;;;;;;1.92;1.50;;;;;;;;;;5053092;28;20025;-45
2021/05/09 13:33:08;;;;;;;1.80;1.23;;;;;;;;;;5053373;28;20025;-45
2021/05/09 13:35:34;;;;;;;1.75;1.50;;;;;;;;;;5053245;28;20025;-44
2021/05/09 13:38:01;;;;;;;1.35;1.10;;;;;;;;;;5053231;28;20028;-45
2021/05/09 13:40:28;;;;;;;1.50;1.20;;;;;;;;;;5053134;28;20025;-45
2021/05/09 13:42:54;;;;;;;3.00;1.38;;;;;;;;;;5053185;28;20100;-47
2021/05/09 13:45:20;;;;;;;1.45;1.35;;;;;;;;;;5053199;28;20025;-45
2021/05/09 13:47:46;;;;;;;2.78;1.60;;;;;;;;;;5053001;28;20484;-46
2021/05/09 13:50:13;;;;;;;1.42;1.27;;;;;;;;;;5051574;28;20076;-46
2021/05/09 13:52:39;;;;;;;1.27;1.17;;;;;;;;;;5053126;28;20021;-45
2021/05/09 13:55:05;;;;;;;2.45;1.17;;;;;;;;;;5053274;28;20090;-46
2021/05/09 13:57:31;;;;;;;1.52;1.17;;;;;;;;;;5053003;28;20068;-45
2021/05/09 13:59:57;;;;;;;2.25;1.40;;;;;;;;;;5053159;28;20035;-45
2021/05/09 14:02:23;;;;;;;2.55;1.50;;;;;;;;;;5052977;28;20105;-45
2021/05/09 14:04:49;;;;;;;1.75;1.58;;;;;;;;;;5051681;28;20028;-45
2021/05/09 14:07:16;;;;;;;1.65;1.20;;;;;;;;;;5053257;28;20025;-46
2021/05/09 14:09:42;;;;;;;2.00;1.58;;;;;;;;;;5051768;28;20028;-45
2021/05/09 14:12:09;;;;;;;1.95;1.50;;;;;;;;;;5051520;28;20480;-48
2021/05/09 14:14:40;;;;;;;1.95;1.40;;;;;;;;;;5051679;28;20033;-45
2021/05/09 14:17:06;;;;;;;1.38;1.20;;;;;;;;;;5052877;28;20033;-47
2021/05/09 14:19:33;;;;;;;1.90;1.40;;;;;;;;;;5052843;28;20491;-44
2021/05/09 14:21:59;;;;;;;1.65;1.35;;;;;;;;;;5052869;28;20024;-44
2021/05/09 14:24:25;;;;;;;1.42;1.17;;;;;;;;;;5051668;28;20029;-44
2021/05/09 14:26:51;;;;;;;1.33;1.23;;;;;;;;;;5052782;28;20092;-45
2021/05/09 14:29:17;;;;;;;1.80;1.60;;;;;;;;;;5052727;28;20092;-45
2021/05/09 14:31:43;;;;;;;1.48;1.38;;;;;;;;;;5051508;28;20519;-45
2021/05/09 14:34:09;;;;;;;2.97;1.40;;;;;;;;;;5052636;28;20484;-45
2021/05/09 14:36:36;;;;;;;1.17;1.08;;;;;;;;;;5052863;28;20025;-44
2021/05/09 14:39:02;;;;;;;1.77;1.45;;;;;;;;;;5056374;28;20028;-46
2021/05/09 14:41:28;;;;;;;1.55;1.42;;;;;;;;;;5055040;28;20480;-45
2021/05/09 14:43:54;;;;;;;1.80;1.40;;;;;;;;;;5055158;28;20460;-45
2021/05/09 14:46:20;;;;;;;1.50;1.17;;;;;;;;;;5056201;28;20035;-45
2021/05/09 14:48:46;;;;;;;2.17;1.48;;;;;;;;;;5056294;28;20023;-45
2021/05/09 14:51:13;;;;;;;1.30;1.20;;;;;;;;;;5055955;28;20080;-46
2021/05/09 14:53:39;;;;;;;1.52;1.40;;;;;;;;;;5056112;28;20017;-44
2021/05/09 14:56:05;;;;;;;2.15;1.42;;;;;;;;;;5056109;28;20067;-45
2021/05/09 14:58:31;;;;;;;2.03;1.60;;;;;;;;;;5056066;28;20053;-44
2021/05/09 15:00:57;;;;;;;1.63;1.38;;;;;;;;;;5054934;28;20033;-45
2021/05/09 15:03:24;;;;;;;2.20;1.60;;;;;;;;;;5055971;28;20021;-44
2021/05/09 15:05:50;;;;;;;1.95;1.50;;;;;;;;;;5055844;28;20061;-44
2021/05/09 15:08:16;;;;;;;2.50;1.33;;;;;;;;;;5055991;28;20096;-44
2021/05/09 15:10:42;;;;;;;1.70;1.48;;;;;;;;;;5055702;28;20025;-45
2021/05/09 15:13:08;;;;;;;1.70;1.48;;;;;;;;;;5055893;28;20088;-46
2021/05/09 15:15:34;;;;;;;1.70;1.50;;;;;;;;;;5054508;28;20057;-45
2021/05/09 15:18:01;;;;;;;2.25;1.40;;;;;;;;;;5037953;28;20028;-45
2021/05/09 15:20:28;;;;;;;1.77;1.40;;;;;;;;;;5055635;28;20025;-46
2021/05/09 15:22:54;;;;;;;1.67;1.33;;;;;;;;;;5055584;28;20025;-45
2021/05/09 15:25:20;;;;;;;1.98;1.48;;;;;;;;;;5055867;28;20067;-44
2021/05/09 15:27:46;;;;;;;2.13;1.60;;;;;;;;;;5055521;28;20036;-45
2021/05/09 15:30:13;;;;;;;1.60;1.42;;;;;;;;;;5055667;28;20083;-44
2021/05/09 15:32:39;;;;;;;1.77;1.30;;;;;;;;;;5055719;28;20024;-45
2021/05/09 15:35:07;;;;;;;1.88;1.48;;;;;;;;;;5054188;28;20044;-45
2021/05/09 15:37:33;;;;;;;1.40;1.25;;;;;;;;;;5055258;28;20057;-45
2021/05/09 15:39:59;;;;;;;1.80;1.65;;;;;;;;;;5055473;28;20112;-45
2021/05/09 15:42:25;;;;;;;1.98;1.50;;;;;;;;;;5055319;28;20502;-45
2021/05/09 15:44:52;;;;;;;2.00;1.40;;;;;;;;;;5055439;28;20028;-47
2021/05/09 15:47:18;;;;;;;1.38;1.10;;;;;;;;;;5055278;28;20024;-45
2021/05/09 15:49:44;;;;;;;1.83;1.55;;;;;;;;;;5053573;28;20024;-44
2021/05/09 15:52:10;;;;;;;3.35;1.65;;;;;;;;;;5054569;28;20045;-46
2021/05/09 15:54:37;;;;;;;3.60;1.45;;;;;;;;;;5054802;28;20031;-45
2021/05/09 15:57:03;;;;;;;2.95;1.40;;;;;;;;;;5053755;28;20025;-45
2021/05/09 15:59:29;;;;;;;2.25;1.55;;;;;;;;;;5054327;28;20017;-46
2021/05/09 16:01:56;;;;;;;2.33;1.38;;;;;;;;;;5024170;28;20043;-45
2021/05/09 16:04:22;;;;;;;5.25;1.55;;;;;;;;;;5018271;28;20700;-45
2021/05/09 16:06:48;;;;;;;4.78;1.63;;;;;;;;;;5030005;28;20392;-45
2021/05/09 16:26:05;;;;;;;6.25;3.15;;;;;;;;;;5057608;28;20864;-58
2021/05/09 16:28:32;;;;;;;10.48;3.28;;;;;;;;;;5057768;28;20115;-60
2021/05/09 16:30:58;;;;;;;8.48;3.50;;;;;;;;;;5057849;28;20031;-57
2021/05/09 16:33:24;;;;;;;6.63;2.85;;;;;;;;;;5048233;28;20029;-58
2021/05/09 16:35:50;;;;;;;8.32;3.05;;;;;;;;;;5058034;28;20098;-59
2021/05/09 16:38:16;;;;;;;6.30;2.92;;;;;;;;;;5057361;28;20021;-61
2021/05/09 16:40:42;;;;;;;8.30;3.03;;;;;;;;;;5057356;28;20044;-58
2021/05/09 16:43:09;;;;;;;5.72;3.00;;;;;;;;;;5047297;28;20029;-58
2021/05/09 16:45:35;;;;;;;7.60;3.60;;;;;;;;;;5056684;28;20459;-58
2021/05/09 16:48:01;;;;;;;4.15;3.08;;;;;;;;;;5058440;28;20375;-60
2021/05/09 16:50:27;;;;;;;4.45;2.67;;;;;;;;;;5058562;28;20097;-59
2021/05/09 16:52:56;;;;;;;6.13;3.00;;;;;;;;;;5049217;28;20484;-60
2021/05/09 16:55:23;;;;;;;5.97;2.88;;;;;;;;;;5058696;28;20415;-58
2021/05/09 16:57:49;;;;;;;5.75;2.92;;;;;;;;;;5056787;28;20024;-59
2021/05/09 17:00:16;;;;;;;5.78;2.60;;;;;;;;;;5055478;28;20040;-60
2021/05/09 17:02:42;;;;;;;3.78;2.55;;;;;;;;;;5066381;28;20024;-60
2021/05/09 17:05:08;;;;;;;6.25;3.15;;;;;;;;;;5067723;28;20502;-60
2021/05/09 17:07:35;;;;;;;4.22;2.70;;;;;;;;;;5069341;28;20024;-59
2021/05/09 17:10:01;;;;;;;5.68;3.13;;;;;;;;;;5069199;28;20028;-59
2021/05/09 17:12:30;;;;;;;4.43;2.83;;;;;;;;;;5068771;28;20434;-59
2021/05/09 17:14:59;;;;;;;5.53;2.85;;;;;;;;;;5069063;28;20067;-59
2021/05/09 17:17:25;;;;;;;4.43;3.08;;;;;;;;;;5069582;28;20031;-59
2021/05/09 17:19:52;;;;;;;3.58;2.70;;;;;;;;;;5067908;28;20052;-59
2021/05/09 17:22:18;;;;;;;15.32;3.35;;;;;;;;;;5081614;28;20368;-59
2021/05/09 17:24:44;;;;;;;7.65;2.88;;;;;;;;;;5088952;28;20044;-59
2021/05/09 17:27:11;;;;;;;5.50;2.63;;;;;;;;;;5089296;28;20399;-59
2021/05/09 17:29:37;;;;;;;8.70;3.08;;;;;;;;;;5089358;28;20028;-59
2021/05/09 17:32:04;;;;;;;3.88;2.50;;;;;;;;;;5089471;28;20539;-59
2021/05/09 17:34:30;;;;;;;6.65;2.80;;;;;;;;;;5089331;28;20387;-59
2021/05/09 17:36:56;;;;;;;4.50;2.80;;;;;;;;;;5078458;28;20476;-59
2021/05/09 17:39:22;;;;;;;5.85;3.55;;;;;;;;;;5075588;28;20577;-59
2021/05/09 17:41:48;;;;;;;8.95;2.92;;;;;;;;;;5075419;28;20066;-59
2021/05/09 17:44:15;;;;;;;9.15;3.03;;;;;;;;;;5075336;28;20378;-59
2021/05/09 17:46:42;;;;;;;5.60;2.90;;;;;;;;;;5074006;28;20020;-59
2021/05/09 17:49:09;;;;;;;4.20;2.67;;;;;;;;;;5075239;28;20063;-59
2021/05/09 17:51:36;;;;;;;4.85;3.03;;;;;;;;;;5075173;28;20043;-60
2021/05/09 17:54:02;;;;;;;3.97;2.72;;;;;;;;;;5075172;28;20008;-60
2021/05/09 17:56:28;;;;;;;4.38;2.80;;;;;;;;;;5075270;28;20017;-60
2021/05/09 17:58:55;;;;;;;5.90;2.60;;;;;;;;;;5073881;28;20388;-60
2021/05/09 18:01:21;;;;;;;4.90;2.22;;;;;;;;;;5075185;28;20028;-60
2021/05/09 18:03:47;;;;;;;5.47;3.03;;;;;;;;;;5074822;28;20048;-59
2021/05/09 18:06:13;;;;;;;5.72;2.95;;;;;;;;;;5074992;28;20104;-60
2021/05/09 18:08:39;;;;;;;6.60;2.65;;;;;;;;;;5073774;28;20032;-60
2021/05/09 18:11:06;;;;;;;3.22;2.30;;;;;;;;;;5075068;28;20055;-60
2021/05/09 18:13:32;;;;;;;4.70;2.95;;;;;;;;;;5073678;28;20081;-60
2021/05/09 18:24:03;;;;;;;4.85;2.50;;;;;;;;;;5074590;28;20059;-60
2021/05/09 18:26:29;;;;;;;7.70;3.08;;;;;;;;;;5074844;28;20506;-60
2021/05/09 18:28:56;;;;;;;6.30;2.67;;;;;;;;;;5074734;28;20097;-58
2021/05/09 18:31:22;;;;;;;7.05;2.97;;;;;;;;;;5074519;28;20468;-60
2021/05/09 18:33:48;;;;;;;5.53;2.47;;;;;;;;;;5074778;28;20024;-61
2021/05/09 18:36:14;;;;;;;6.45;2.40;;;;;;;;;;5073041;28;20024;-59
2021/05/09 18:38:40;;;;;;;5.35;3.05;;;;;;;;;;5073127;28;20074;-60
2021/05/09 18:41:07;;;;;;;5.43;2.78;;;;;;;;;;5074437;28;20021;-60
2021/05/09 18:43:33;;;;;;;5.38;2.65;;;;;;;;;;5074362;28;20464;-60
2021/05/09 18:45:59;;;;;;;4.22;2.13;;;;;;;;;;5074268;28;20094;-60
2021/05/09 18:48:25;;;;;;;5.00;2.75;;;;;;;;;;5071994;28;20070;-60
2021/05/09 18:50:52;;;;;;;4.53;2.25;;;;;;;;;;5072934;28;20024;-60
2021/05/09 18:53:18;;;;;;;3.10;2.70;;;;;;;;;;5074080;28;20097;-59
2021/05/09 18:55:44;;;;;;;5.60;2.50;;;;;;;;;;5072729;28;20021;-60
2021/05/09 18:58:10;;;;;;;3.45;2.25;;;;;;;;;;5038363;28;20024;-60
2021/05/09 19:00:36;;;;;;;3.28;2.53;;;;;;;;;;5036679;28;20112;-57
2021/05/09 19:03:08;;;;;;;7.28;2.78;;;;;;;;;;5041795;28;20107;-59
2021/05/09 19:06:01;;;;;;;6.28;2.40;;;;;;;;;;5038846;28;20055;-59
2021/05/09 19:08:32;;;;;;;4.90;2.65;;;;;;;;;;5031100;28;20041;-57
2021/05/09 19:10:58;;;;;;;5.93;2.80;;;;;;;;;;5041786;28;20039;-59
2021/05/09 19:14:13;;;;;;;5.13;2.80;;;;;;;;;;5040269;28;20388;-59
2021/05/09 19:17:12;;;;;;;4.63;2.70;;;;;;;;;;5031437;22;20129;-54
2021/05/09 19:19:41;;;;;;;3.28;2.42;;;;;;;;;;4962048;28;20042;-53
2021/05/09 19:22:12;;;;;;;3.95;2.55;;;;;;;;;;4964043;28;20041;-55
2021/05/09 19:24:39;;;;;;;5.63;2.83;;;;;;;;;;4962301;28;20042;-56
2021/05/09 19:27:07;;;;;;;4.55;2.17;;;;;;;;;;4966541;28;20077;-52
2021/05/09 19:29:35;;;;;;;4.82;2.63;;;;;;;;;;4959361;28;20169;-53
2021/05/09 19:32:04;;;;;;;5.93;2.28;;;;;;;;;;4963493;28;20031;-55
2021/05/09 19:34:30;;;;;;;6.40;2.75;;;;;;;;;;4972803;28;20106;-55
2021/05/09 19:36:58;;;;;;;4.55;2.20;;;;;;;;;;5058017;22;20017;-62
2021/05/09 19:39:25;;;;;;;4.50;1.88;;;;;;;;;;5008601;23;20050;-60
2021/05/09 19:41:54;;;;;;;3.00;2.38;;;;;;;;;;5055121;22;20547;-60
2021/05/09 19:44:21;;;;;;;4.97;2.55;;;;;;;;;;4982943;28;20108;-60
2021/05/09 19:46:47;;;;;;;5.35;2.40;;;;;;;;;;4984119;28;20492;-59
2021/05/09 19:49:16;;;;;;;3.08;1.98;;;;;;;;;;4989733;28;20373;-61
2021/05/09 19:51:46;;;;;;;4.13;2.38;;;;;;;;;;5004186;28;20055;-60
2021/05/09 19:54:17;;;;;;;3.33;2.53;;;;;;;;;;4989611;28;20057;-58
2021/05/09 19:56:44;;;;;;;4.75;2.58;;;;;;;;;;4986164;28;20046;-58
2021/05/09 19:59:11;;;;;;;3.28;2.50;;;;;;;;;;4975906;28;20038;-58
2021/05/09 20:01:37;;;;;;;4.13;2.42;;;;;;;;;;4982686;28;20034;-58
2021/05/09 20:04:03;;;;;;;3.58;2.30;;;;;;;;;;4983953;28;20050;-59
2021/05/09 20:06:33;;;;;;;4.97;2.70;;;;;;;;;;4998950;28;20445;-58
2021/05/09 20:09:01;;;;;;;4.50;2.80;;;;;;;;;;4984070;28;20042;-58
2021/05/09 20:11:29;;;;;;;5.70;3.13;;;;;;;;;;4995301;28;20381;-58
2021/05/09 20:13:55;;;;;;;6.63;2.60;;;;;;;;;;5003029;28;20400;-57
2021/05/09 20:16:22;;;;;;;4.03;2.65;;;;;;;;;;4996480;28;20022;-59
2021/05/09 20:18:48;;;;;;;6.55;2.85;;;;;;;;;;4983732;28;20050;-58
2021/05/09 20:21:15;;;;;;;6.03;2.97;;;;;;;;;;4984033;28;20093;-59
2021/05/09 20:23:41;;;;;;;4.78;2.60;;;;;;;;;;4982114;28;20361;-59
2021/05/09 20:26:08;;;;;;;3.38;2.22;;;;;;;;;;4983478;28;20050;-59
2021/05/09 20:28:34;;;;;;;5.55;3.35;;;;;;;;;;4977672;28;20042;-58
2021/05/09 20:31:00;;;;;;;6.43;3.80;;;;;;;;;;4991192;28;20104;-59
2021/05/09 20:33:26;;;;;;;6.70;3.67;;;;;;;;;;4991894;28;20026;-60
2021/05/09 20:35:53;;;;;;;5.72;3.40;;;;;;;;;;4984331;28;20038;-59
2021/05/09 20:38:19;;;;;;;3.45;2.63;;;;;;;;;;4982639;28;20034;-58
2021/05/09 20:40:45;;;;;;;4.10;2.88;;;;;;;;;;4979873;28;20037;-58
2021/05/09 20:43:11;;;;;;;4.80;2.90;;;;;;;;;;5000921;28;20381;-60
2021/05/09 20:45:37;;;;;;;9.20;2.70;;;;;;;;;;4995731;28;20025;-58
2021/05/09 20:48:04;;;;;;;5.38;3.28;;;;;;;;;;4985293;28;20029;-58
2021/05/09 20:50:30;;;;;;;3.70;2.50;;;;;;;;;;5000047;28;20485;-59
2021/05/09 20:52:56;;;;;;;3.45;2.80;;;;;;;;;;4984909;28;20034;-59
2021/05/09 20:55:22;;;;;;;3.05;2.40;;;;;;;;;;4991348;28;20124;-61
2021/05/09 20:58:12;;;;;;;6.60;4.00;;;;;;;;;;4979107;28;20046;-60
2021/05/09 21:00:44;;;;;;;4.93;3.28;;;;;;;;;;4979376;28;20461;-59
2021/05/09 21:03:12;;;;;;;6.88;3.70;;;;;;;;;;4983067;28;20038;-59
2021/05/09 21:05:38;;;;;;;4.63;2.53;;;;;;;;;;4983007;28;20136;-60
2021/05/09 21:08:05;;;;;;;2.92;2.40;;;;;;;;;;4979974;28;20041;-59
2021/05/09 21:10:32;;;;;;;5.10;2.65;;;;;;;;;;4984069;28;20018;-60
2021/05/09 21:12:58;;;;;;;3.53;3.20;;;;;;;;;;4987235;28;20030;-59
2021/05/09 21:15:24;;;;;;;5.55;3.38;;;;;;;;;;4989494;28;20129;-59
2021/05/09 21:17:50;;;;;;;4.20;3.03;;;;;;;;;;4979635;28;20154;-59
2021/05/09 21:20:17;;;;;;;3.80;2.65;;;;;;;;;;4993744;28;20020;-59
2021/05/09 21:22:43;;;;;;;3.83;3.10;;;;;;;;;;4997460;28;20022;-59
2021/05/09 21:25:09;;;;;;;3.22;2.85;;;;;;;;;;5000933;28;20137;-60
2021/05/09 21:27:35;;;;;;;3.88;3.00;;;;;;;;;;4995285;28;20022;-60
2021/05/09 21:30:02;;;;;;;4.88;3.00;;;;;;;;;;4995250;28;20080;-59
2021/05/09 21:32:28;;;;;;;8.27;3.90;;;;;;;;;;4993706;28;20381;-59
2021/05/09 21:34:54;;;;;;;5.65;3.80;;;;;;;;;;4995133;28;20022;-59
2021/05/09 21:37:20;;;;;;;6.20;3.65;;;;;;;;;;4994835;28;20480;-60
2021/05/09 21:39:47;;;;;;;6.78;3.53;;;;;;;;;;4993767;28;20440;-59
2021/05/09 21:42:13;;;;;;;4.57;3.33;;;;;;;;;;5003446;28;20053;-60
2021/05/09 21:44:39;;;;;;;4.40;3.72;;;;;;;;;;4995660;28;20111;-59
2021/05/09 21:47:05;;;;;;;5.93;3.60;;;;;;;;;;4995057;28;20022;-60
2021/05/09 21:49:31;;;;;;;3.90;2.92;;;;;;;;;;4995003;28;20077;-60
2021/05/09 21:51:57;;;;;;;5.28;2.80;;;;;;;;;;4994843;28;20481;-58
2021/05/09 21:54:24;;;;;;;5.97;3.20;;;;;;;;;;4993708;28;20389;-59
2021/05/09 21:56:50;;;;;;;4.65;3.10;;;;;;;;;;4976643;28;20125;-60
2021/05/09 21:59:16;;;;;;;6.28;3.20;;;;;;;;;;4989145;28;20492;-60
2021/05/09 22:01:42;;;;;;;6.82;3.20;;;;;;;;;;4993740;28;20094;-59
2021/05/09 22:04:08;;;;;;;3.30;3.00;;;;;;;;;;4994418;28;20476;-59
2021/05/09 22:06:34;;;;;;;6.88;3.70;;;;;;;;;;4992586;28;20491;-59
2021/05/09 22:09:01;;;;;;;5.50;3.45;;;;;;;;;;4994344;28;20034;-59
2021/05/09 22:11:27;;;;;;;6.50;4.13;;;;;;;;;;4994150;28;20056;-58
2021/05/09 22:13:53;;;;;;;7.03;4.10;;;;;;;;;;4994561;28;20026;-58
2021/05/09 22:16:19;;;;;;;4.40;3.70;;;;;;;;;;4993981;28;20050;-60
2021/05/09 22:18:46;;;;;;;5.63;3.90;;;;;;;;;;4994795;28;20101;-58
2021/05/09 22:21:12;;;;;;;5.22;3.40;;;;;;;;;;4994372;28;20034;-59
2021/05/09 22:23:41;;;;;;;6.97;3.55;;;;;;;;;;4992688;28;20023;-59
2021/05/09 22:26:07;;;;;;;5.35;3.95;;;;;;;;;;4994180;28;20519;-61
2021/05/09 22:28:34;;;;;;;7.88;3.95;;;;;;;;;;4993452;28;20025;-59
2021/05/09 22:31:01;;;;;;;6.97;4.43;;;;;;;;;;4992974;28;20516;-59
2021/05/09 22:33:28;;;;;;;6.38;3.95;;;;;;;;;;4993998;28;20452;-60
2021/05/09 22:35:54;;;;;;;8.95;4.40;;;;;;;;;;4994218;28;20114;-60
2021/05/09 22:38:21;;;;;;;5.82;4.07;;;;;;;;;;4992425;28;20094;-59
2021/05/09 22:40:47;;;;;;;5.78;3.70;;;;;;;;;;4992700;28;20037;-59
2021/05/09 22:43:13;;;;;;;8.25;3.92;;;;;;;;;;4992715;28;20027;-60
2021/05/09 22:45:39;;;;;;;5.38;3.40;;;;;;;;;;4993877;28;20029;-58
2021/05/09 22:48:06;;;;;;;5.15;3.28;;;;;;;;;;4993713;28;20034;-59
2021/05/09 22:50:32;;;;;;;4.65;3.90;;;;;;;;;;4993771;28;20026;-58
2021/05/09 22:52:58;;;;;;;6.88;4.15;;;;;;;;;;4993612;28;20030;-60
2021/05/09 22:55:24;;;;;;;6.43;3.90;;;;;;;;;;4991484;28;20449;-59
2021/05/09 22:57:51;;;;;;;6.35;3.97;;;;;;;;;;4993510;28;20019;-58
2021/05/09 23:00:17;;;;;;;9.48;4.05;;;;;;;;;;4993444;28;20057;-59
2021/05/09 23:02:43;;;;;;;7.03;4.50;;;;;;;;;;4993772;28;20030;-59
2021/05/09 23:05:10;;;;;;;5.97;4.20;;;;;;;;;;4993532;28;20022;-59
2021/05/09 23:07:36;;;;;;;7.40;4.53;;;;;;;;;;4993628;28;20056;-59
2021/05/09 23:10:03;;;;;;;4.70;4.20;;;;;;;;;;4993110;28;20045;-59
2021/05/09 23:12:30;;;;;;;4.85;4.07;;;;;;;;;;4993361;28;20425;-58
2021/05/09 23:14:56;;;;;;;6.38;4.35;;;;;;;;;;4993227;28;20030;-59
2021/05/09 23:17:23;;;;;;;5.72;4.15;;;;;;;;;;4993503;28;20022;-58
2021/05/09 23:19:57;;;;;;;7.38;4.50;;;;;;;;;;4993255;28;20034;-58
2021/05/09 23:22:24;;;;;;;5.25;4.45;;;;;;;;;;4991577;28;20030;-59
2021/05/09 23:24:50;;;;;;;6.25;4.00;;;;;;;;;;4993363;28;20440;-58
2021/05/09 23:27:17;;;;;;;7.53;4.40;;;;;;;;;;4991777;28;20117;-58
2021/05/09 23:29:43;;;;;;;8.40;4.35;;;;;;;;;;4992908;28;20037;-60
2021/05/09 23:32:10;;;;;;;10.13;5.70;;;;;;;;;;4993254;28;20026;-58
2021/05/09 23:34:36;;;;;;;5.35;4.03;;;;;;;;;;4992319;28;20030;-58
2021/05/09 23:37:02;;;;;;;6.22;4.90;;;;;;;;;;4993326;28;20019;-58
2021/05/09 23:39:29;;;;;;;6.97;4.78;;;;;;;;;;4992842;28;20085;-58
2021/05/09 23:41:55;;;;;;;7.10;5.38;;;;;;;;;;4992694;28;20039;-58
2021/05/09 23:44:21;;;;;;;8.68;5.45;;;;;;;;;;4991020;28;20303;-59
2021/05/09 23:46:48;;;;;;;8.20;5.50;;;;;;;;;;4992899;28;20030;-59
2021/05/09 23:49:14;;;;;;;9.73;5.60;;;;;;;;;;4992662;28;20025;-59
2021/05/09 23:51:40;;;;;;;7.85;5.45;;;;;;;;;;4992619;28;20026;-60
2021/05/09 23:54:07;;;;;;;7.95;6.05;;;;;;;;;;4990850;28;20204;-60
2021/05/09 23:56:33;;;;;;;7.93;5.25;;;;;;;;;;4992615;28;20563;-59
2021/05/09 23:58:59;;;;;;;6.22;5.05;;;;;;;;;;4991630;28;20394;-59
